Time;durP1;ratioP1;P1;durP2;ratioP2;P2;SDS_P1;SDS_P2;PMS_P1;PMS_P2;Temp;Humidity;BMP_temperature;BMP_pressure;BME280_temperature;BME280_humidity;BME280_pressure;Samples;Min_cycle;Max_cycle;Signal;HPM_P1;HPM_P2
2021/07/07 00:01:20;;;;;;;;;2.33;1.00;;;;;26.36;44.13;100936.19;5080771;28;46314;-78
2021/07/07 00:03:46;;;;;;;;;0.67;0.00;;;;;26.33;44.10;100926.75;5080559;28;45201;-78
2021/07/07 00:06:11;;;;;;;;;2.33;1.00;;;;;26.42;44.12;100946.03;5080720;28;45227;-77
2021/07/07 00:08:37;;;;;;;;;1.00;1.00;;;;;26.33;44.02;100933.94;5080729;28;45274;-77
2021/07/07 00:11:02;;;;;;;;;1.00;1.00;;;;;26.38;44.39;100945.63;5080327;28;45386;-78
2021/07/07 00:13:28;;;;;;;;;4.00;1.00;;;;;26.47;44.17;100953.44;5079067;28;45369;-77
2021/07/07 00:15:53;;;;;;;;;2.33;2.33;;;;;26.53;43.63;100968.63;5080769;28;45445;-77
2021/07/07 00:18:19;;;;;;;;;1.33;1.33;;;;;26.51;44.14;100965.34;5061745;28;45244;-78
2021/07/07 00:23:17;;;;;;;;;1.50;1.50;;;;;26.35;44.07;100937.22;5059823;28;45663;-78
2021/07/07 00:25:42;;;;;;;;;1.67;1.67;;;;;26.35;44.04;100942.56;5059917;28;45519;-78
2021/07/07 00:28:08;;;;;;;;;1.67;1.67;;;;;26.38;44.33;100958.97;5060804;28;45280;-77
2021/07/07 00:30:33;;;;;;;;;1.00;1.00;;;;;26.43;43.82;100965.53;5063895;28;46522;-77
2021/07/07 00:32:59;;;;;;;;;1.00;1.00;;;;;26.45;43.95;100975.00;5060081;28;45334;-77
2021/07/07 00:35:25;;;;;;;;;2.67;1.00;;;;;26.39;43.88;100955.25;5058708;28;45437;-77
2021/07/07 00:37:51;;;;;;;;;3.00;2.00;;;;;26.50;43.91;100972.50;5071947;28;45264;-77
2021/07/07 00:40:18;;;;;;;;;2.25;1.75;;;;;26.44;43.77;100973.34;5059573;28;45977;-77
2021/07/07 00:42:43;;;;;;;;;2.00;2.00;;;;;26.41;43.89;100973.75;5061423;28;45231;-77
2021/07/07 00:45:10;;;;;;;;;2.00;1.25;;;;;26.43;44.04;100970.84;5080056;28;45612;-77
2021/07/07 00:47:35;;;;;;;;;2.00;2.00;;;;;26.34;43.90;100954.22;5080057;28;45430;-77
2021/07/07 00:50:01;;;;;;;;;2.00;1.00;;;;;26.35;44.03;100958.56;5079908;28;46118;-77
2021/07/07 00:52:26;;;;;;;;;2.00;2.00;;;;;26.30;43.99;100951.19;5080061;28;45203;-77
2021/07/07 00:54:51;;;;;;;;;2.00;2.00;;;;;26.44;43.89;100977.88;5076707;28;45375;-77
2021/07/07 00:57:17;;;;;;;;;2.00;2.00;;;;;26.44;44.32;100977.88;5079431;28;45393;-78
2021/07/07 00:59:46;;;;;;;;;1.00;1.00;;;;;26.44;44.29;100984.00;5079565;28;46504;-77
2021/07/07 01:02:16;;;;;;;;;1.67;1.67;;;;;26.45;44.02;100982.16;5078410;28;45406;-77
2021/07/07 01:04:41;;;;;;;;;1.25;1.25;;;;;26.31;43.49;100955.47;5080609;28;45256;-77
2021/07/07 01:07:07;;;;;;;;;1.00;1.00;;;;;26.40;43.69;100974.75;5079843;28;45475;-77
2021/07/07 01:09:32;;;;;;;;;2.00;2.00;;;;;26.33;43.83;100969.44;5083055;28;46627;-77
2021/07/07 01:11:57;;;;;;;;;1.00;1.00;;;;;26.32;43.89;100966.97;5083312;28;45356;-78
2021/07/07 01:14:23;;;;;;;;;1.75;1.75;;;;;26.47;44.07;100994.25;5077495;28;45363;-78
2021/07/07 01:16:49;;;;;;;;;1.00;1.00;;;;;26.40;43.72;100974.75;5062756;28;45363;-77
2021/07/07 01:19:15;;;;;;;;;1.00;1.00;;;;;26.34;44.06;100965.72;5063018;28;46052;-77
2021/07/07 01:21:48;;;;;;;;;1.50;1.50;;;;;26.34;43.87;100964.91;5062567;28;45273;-77
2021/07/07 01:24:16;;;;;;;;;1.00;1.00;;;;;26.24;44.05;100952.00;5062769;28;45366;-77
2021/07/07 01:26:42;;;;;;;;;2.00;1.00;;;;;26.27;43.85;100952.41;5062145;28;45431;-77
2021/07/07 01:29:09;;;;;;;;;2.00;2.00;;;;;26.42;44.10;100983.38;5063248;28;45417;-77
2021/07/07 01:31:34;;;;;;;;;1.50;1.50;;;;;26.44;43.82;100983.22;5080173;27;45234;-77
2021/07/07 01:34:00;;;;;;;;;4.00;1.00;;;;;26.47;44.05;100988.09;5062461;28;45285;-77
2021/07/07 01:36:25;;;;;;;;;1.50;1.00;;;;;26.39;43.59;100973.94;5064518;28;45251;-77
2021/07/07 01:38:51;;;;;;;;;1.50;1.50;;;;;26.25;43.75;100957.13;5073477;27;46736;-77
2021/07/07 01:41:16;;;;;;;;;2.50;1.50;;;;;26.36;44.09;100977.00;5060906;28;45181;-78
2021/07/07 01:43:42;;;;;;;;;1.00;1.00;;;;;26.36;43.56;100978.88;5072599;28;45268;-77
2021/07/07 01:46:07;;;;;;;;;2.00;1.00;;;;;26.44;43.83;100980.53;5082666;28;45303;-77
2021/07/07 01:48:33;;;;;;;;;1.25;1.25;;;;;26.28;44.00;100958.56;5082823;28;45464;-77
2021/07/07 01:50:58;;;;;;;;;1.00;1.00;;;;;26.37;44.02;100976.00;5082697;28;45275;-77
2021/07/07 01:53:24;;;;;;;;;1.00;1.00;;;;;26.36;43.66;100981.53;5081471;28;45756;-77
2021/07/07 01:55:50;;;;;;;;;1.00;1.00;;;;;26.37;43.89;100985.84;5082424;28;45849;-77
2021/07/07 01:58:16;;;;;;;;;2.00;2.00;;;;;26.40;44.05;100993.44;5081921;28;45299;-77
2021/07/07 02:00:41;;;;;;;;;1.75;1.00;;;;;26.34;43.82;100975.56;5078880;28;45304;-77
2021/07/07 02:03:06;;;;;;;;;1.67;1.67;;;;;26.34;43.52;100988.91;5072142;28;45393;-77
2021/07/07 02:05:36;;;;;;;;;1.33;1.33;;;;;26.37;44.04;100984.00;5065941;28;45570;-77
2021/07/07 02:08:05;;;;;;;;;2.25;1.00;;;;;26.41;44.07;100995.06;5077315;28;45306;-77
2021/07/07 02:10:32;;;;;;;;;1.75;1.00;;;;;26.39;44.01;100991.78;5082542;28;45346;-77
2021/07/07 02:12:58;;;;;;;;;0.50;0.50;;;;;26.43;43.85;100993.03;5083495;28;45469;-77
2021/07/07 02:15:30;;;;;;;;;1.50;1.50;;;;;26.43;43.88;101003.69;5080620;28;45611;-77
2021/07/07 02:17:57;;;;;;;;;1.75;1.75;;;;;26.28;43.95;100978.03;5082054;27;46542;-78
2021/07/07 02:20:23;;;;;;;;;2.00;2.00;;;;;26.36;43.69;100997.53;5080719;28;45398;-78
2021/07/07 02:22:49;;;;;;;;;1.00;1.00;;;;;26.43;43.55;101005.53;5082232;28;45495;-77
2021/07/07 02:25:20;;;;;;;;;1.00;1.00;;;;;26.35;43.82;100990.56;5081832;28;45270;-78
2021/07/07 02:27:46;;;;;;;;;1.00;1.00;;;;;26.31;43.88;100984.00;5082050;28;45340;-78
2021/07/07 02:30:16;;;;;;;;;2.00;2.00;;;;;26.43;43.93;100995.69;5075639;28;45325;-79
2021/07/07 02:32:42;;;;;;;;;1.75;0.25;;;;;26.34;43.80;100984.41;5061889;28;45240;-77
2021/07/07 02:35:12;;;;;;;;;1.33;1.33;;;;;26.41;43.64;101003.88;5068930;28;45415;-77
2021/07/07 02:37:37;;;;;;;;;3.00;1.00;;;;;26.37;43.78;100989.31;5081932;27;48732;-77
2021/07/07 02:40:05;;;;;;;;;1.00;1.00;;;;;26.29;43.90;100985.03;5061378;28;45514;-77
2021/07/07 02:42:32;;;;;;;;;0.75;0.75;;;;;26.41;43.65;101011.88;5060823;28;45223;-77
2021/07/07 02:44:58;;;;;;;;;2.00;2.00;;;;;26.39;43.93;101000.59;5080056;28;45696;-78
2021/07/07 02:47:24;;;;;;;;;1.00;1.00;;;;;26.28;43.66;100983.38;5080313;28;46684;-77
2021/07/07 02:49:49;;;;;;;;;1.25;1.25;;;;;26.25;43.67;100973.13;5081764;28;45318;-77
2021/07/07 02:52:15;;;;;;;;;2.00;2.00;;;;;26.33;43.85;100990.78;5082026;28;45439;-77
2021/07/07 02:54:40;;;;;;;;;2.00;2.00;;;;;26.17;43.79;100968.00;5081708;28;45325;-77
2021/07/07 02:57:06;;;;;;;;;2.00;2.00;;;;;26.26;43.57;100977.44;5080518;28;48568;-77
2021/07/07 02:59:31;;;;;;;;;1.50;1.50;;;;;26.26;43.86;100988.09;5080551;28;45454;-77
2021/07/07 03:01:57;;;;;;;;;0.00;0.00;;;;;26.41;44.05;101016.41;5083197;28;45301;-77
2021/07/07 03:04:22;;;;;;;;;2.00;1.00;;;;;26.37;43.72;101004.50;5081945;28;45584;-78
2021/07/07 03:06:48;;;;;;;;;1.00;1.00;;;;;26.39;43.97;101005.94;5079541;28;45417;-78
2021/07/07 03:09:13;;;;;;;;;2.00;1.00;;;;;26.26;43.94;100979.28;5080980;28;45219;-78
2021/07/07 03:11:38;;;;;;;;;1.67;1.67;;;;;26.39;43.50;101013.94;5075443;28;45516;-78
2021/07/07 03:14:04;;;;;;;;;2.00;2.00;;;;;26.34;43.65;100996.91;5060963;28;45592;-78
2021/07/07 03:16:30;;;;;;;;;3.75;2.50;;;;;26.32;43.41;101005.13;5060719;28;45436;-78
2021/07/07 03:18:55;;;;;;;;;2.00;2.00;;;;;26.38;43.77;101017.66;5066294;28;45312;-78
2021/07/07 03:21:21;;;;;;;;;0.75;0.75;;;;;26.28;43.72;101002.03;5081406;28;45159;-78
2021/07/07 03:23:47;;;;;;;;;1.00;1.00;;;;;26.40;43.83;101028.94;5079727;28;45587;-78
2021/07/07 03:26:13;;;;;;;;;1.00;1.00;;;;;26.38;43.79;101031.00;5060662;28;45758;-78
2021/07/07 03:28:38;;;;;;;;;2.00;2.00;;;;;26.40;44.05;101033.44;5060605;28;45310;-77
2021/07/07 03:31:04;;;;;;;;;2.00;2.00;;;;;26.35;43.86;101023.41;5063885;28;45492;-78
2021/07/07 03:33:30;;;;;;;;;1.00;1.00;;;;;26.37;44.14;101037.34;5060783;28;45612;-78
2021/07/07 03:35:55;;;;;;;;;2.00;2.00;;;;;26.34;43.79;101028.91;5060542;28;46322;-78
2021/07/07 03:38:20;;;;;;;;;2.00;2.00;;;;;26.23;43.84;101017.84;5072193;28;45248;-78
2021/07/07 03:40:46;;;;;;;;;1.75;1.75;;;;;26.26;43.79;101027.28;5060746;28;45800;-78
2021/07/07 03:43:11;;;;;;;;;1.50;1.50;;;;;26.25;43.35;101020.31;5064826;28;45600;-78
2021/07/07 03:45:37;;;;;;;;;3.00;1.25;;;;;26.33;43.60;101041.44;5079929;28;48320;-78
2021/07/07 03:48:03;;;;;;;;;2.00;1.00;;;;;26.32;43.30;101038.97;5079402;28;45262;-77
2021/07/07 03:50:29;;;;;;;;;3.00;2.00;;;;;26.26;43.55;101041.44;5080952;28;45215;-78
2021/07/07 03:52:55;;;;;;;;;1.00;1.00;;;;;26.26;43.70;101040.59;5080417;28;45250;-77
2021/07/07 03:55:23;;;;;;;;;2.00;2.00;;;;;26.37;43.59;101064.00;5080601;27;45446;-78
2021/07/07 03:57:49;;;;;;;;;2.00;2.00;;;;;26.38;43.88;101071.00;5080506;28;45362;-78
2021/07/07 04:00:23;;;;;;;;;1.00;1.00;;;;;26.29;43.79;101057.03;5080984;28;46464;-78
2021/07/07 04:02:48;;;;;;;;;2.25;1.25;;;;;26.38;43.86;101070.19;5080779;28;45403;-78
2021/07/07 04:05:14;;;;;;;;;1.00;1.00;;;;;26.24;43.80;101050.66;5075213;28;46654;-78
2021/07/07 04:07:40;;;;;;;;;3.00;2.00;;;;;26.36;43.85;101066.91;5060659;28;45634;-77
2021/07/07 04:10:08;;;;;;;;;1.50;1.50;;;;;26.38;43.70;101067.50;5060206;28;45248;-77
2021/07/07 04:12:35;;;;;;;;;2.25;2.25;;;;;26.34;43.86;101066.25;5058947;28;45553;-77
2021/07/07 04:15:00;;;;;;;;;1.00;1.00;;;;;26.29;43.72;101056.22;5059833;28;45650;-78
2021/07/07 04:17:26;;;;;;;;;4.00;3.00;;;;;26.24;43.67;101050.66;5060303;28;45195;-78
2021/07/07 04:19:51;;;;;;;;;1.00;1.00;;;;;26.25;43.35;101055.81;5060258;28;45689;-77
2021/07/07 04:22:16;;;;;;;;;1.25;1.25;;;;;26.27;43.74;101066.25;5060147;28;45419;-77
2021/07/07 04:24:42;;;;;;;;;1.00;1.00;;;;;26.33;43.80;101072.63;5059495;28;46242;-77
2021/07/07 04:27:07;;;;;;;;;2.00;2.00;;;;;26.33;43.71;101075.31;5060038;28;45419;-78
2021/07/07 04:29:33;;;;;;;;;0.50;0.50;;;;;26.33;43.44;101078.78;5064198;28;45277;-78
2021/07/07 04:31:58;;;;;;;;;1.67;1.67;;;;;26.33;43.82;101085.97;5058701;28;45512;-78
2021/07/07 04:34:25;;;;;;;;;1.75;1.75;;;;;26.31;43.60;101080.03;5059894;28;46261;-78
2021/07/07 04:36:50;;;;;;;;;1.25;1.25;;;;;26.38;43.54;101086.19;5064560;28;45495;-78
2021/07/07 04:39:16;;;;;;;;;1.75;1.75;;;;;26.38;43.62;101097.69;5066500;28;45320;-77
2021/07/07 04:41:42;;;;;;;;;2.00;2.00;;;;;26.23;43.62;101073.03;5060801;28;45307;-77
2021/07/07 04:44:07;;;;;;;;;2.50;2.50;;;;;26.38;43.81;101099.50;5076710;28;46497;-77
2021/07/07 04:46:32;;;;;;;;;2.00;2.00;;;;;26.37;43.55;101095.19;5083712;28;45188;-77
2021/07/07 04:48:58;;;;;;;;;2.25;1.25;;;;;26.34;43.72;101095.59;5083850;28;45539;-78
2021/07/07 04:51:23;;;;;;;;;3.33;1.00;;;;;26.32;43.74;101089.66;5082226;28;45561;-78
2021/07/07 04:53:49;;;;;;;;;2.00;2.00;;;;;26.34;43.83;101093.75;5083297;28;45301;-77
2021/07/07 04:56:14;;;;;;;;;1.00;1.00;;;;;26.37;43.94;101104.03;5083469;28;45284;-78
2021/07/07 04:58:41;;;;;;;;;2.00;2.00;;;;;26.36;43.93;101097.03;5083610;28;45223;-78
2021/07/07 05:01:07;;;;;;;;;1.00;1.00;;;;;26.37;43.58;101087.19;5083011;28;45200;-77
2021/07/07 05:03:33;;;;;;;;;1.75;1.00;;;;;26.29;43.63;101093.53;5083236;28;46563;-77
2021/07/07 05:05:58;;;;;;;;;2.00;2.00;;;;;26.27;43.69;101091.09;5083391;28;45350;-78
2021/07/07 05:08:23;;;;;;;;;1.75;1.75;;;;;26.35;43.80;101111.41;5081960;28;45250;-78
2021/07/07 05:10:49;;;;;;;;;2.50;2.00;;;;;26.33;43.75;101102.81;5082668;28;45370;-78
2021/07/07 05:13:19;;;;;;;;;1.00;1.00;;;;;26.30;43.61;101100.53;5083336;28;46498;-78
2021/07/07 05:15:48;;;;;;;;;2.75;2.50;;;;;26.37;43.37;101113.88;5083148;28;45211;-78
2021/07/07 05:18:14;;;;;;;;;1.33;1.33;;;;;26.33;43.75;101120.66;5083436;27;45395;-78
2021/07/07 05:20:40;;;;;;;;;2.25;2.25;;;;;26.31;43.49;101115.50;5063003;28;45623;-78
2021/07/07 05:23:08;;;;;;;;;3.25;2.00;;;;;26.29;43.83;101115.72;5062752;28;45483;-77
2021/07/07 05:25:38;;;;;;;;;2.50;2.50;;;;;26.29;43.55;101110.38;5061093;28;45243;-78
2021/07/07 05:28:04;;;;;;;;;3.00;2.00;;;;;26.32;43.67;101122.47;5062644;28;45276;-77
2021/07/07 05:30:31;;;;;;;;;1.25;1.25;;;;;26.38;43.54;101142.19;5078751;28;45520;-77
2021/07/07 05:32:58;;;;;;;;;1.50;1.00;;;;;26.34;43.26;101131.09;5063237;28;46133;-77
2021/07/07 05:35:24;;;;;;;;;1.00;1.00;;;;;26.24;43.49;101125.34;5062790;28;45300;-78
2021/07/07 05:37:49;;;;;;;;;2.00;2.00;;;;;26.29;43.58;101129.03;5071587;28;45363;-77
2021/07/07 05:40:19;;;;;;;;;1.25;1.25;;;;;26.33;43.53;101136.66;5060919;28;45458;-77
2021/07/07 05:42:50;;;;;;;;;2.00;2.00;;;;;26.20;43.85;101110.78;5064439;28;46328;-77
2021/07/07 05:45:16;;;;;;;;;2.50;2.50;;;;;26.36;43.14;101136.25;5082663;28;45294;-78
2021/07/07 05:47:42;;;;;;;;;1.00;1.00;;;;;26.32;43.68;101135.81;5082823;28;45191;-77
2021/07/07 05:50:07;;;;;;;;;1.00;1.00;;;;;26.28;43.71;101134.59;5082681;28;45591;-77
2021/07/07 05:52:33;;;;;;;;;4.00;1.75;;;;;26.24;43.38;101136.00;5082264;27;45455;-77
2021/07/07 05:54:58;;;;;;;;;1.50;1.50;;;;;26.33;43.63;101149.97;5081795;28;45282;-77
2021/07/07 05:57:36;;;;;;;;;2.75;2.75;;;;;26.31;43.55;101147.50;5074546;28;45364;-77
2021/07/07 06:00:04;;;;;;;;;2.00;2.00;;;;;26.33;43.32;101158.81;5062141;28;45419;-77
2021/07/07 06:02:30;;;;;;;;;1.00;1.00;;;;;26.31;44.01;101160.84;5061809;28;46351;-78
2021/07/07 06:04:55;;;;;;;;;0.33;0.33;;;;;26.38;44.00;101172.38;5060813;28;45294;-77
2021/07/07 06:07:20;;;;;;;;;3.00;3.00;;;;;26.33;43.68;101164.16;5062103;28;45285;-77
2021/07/07 06:09:46;;;;;;;;;3.00;1.75;;;;;26.39;43.87;101167.84;5061912;28;45237;-77
2021/07/07 06:12:11;;;;;;;;;3.00;1.75;;;;;26.29;43.79;101160.22;5061615;28;45673;-78
2021/07/07 06:14:36;;;;;;;;;1.50;1.50;;;;;26.25;43.44;101157.16;5062039;28;45240;-79
2021/07/07 06:17:02;;;;;;;;;2.50;1.00;;;;;26.39;43.54;101170.50;5060773;28;45338;-78
2021/07/07 06:19:27;;;;;;;;;1.00;1.00;;;;;26.36;43.56;101182.38;5061983;28;45547;-78
2021/07/07 06:21:53;;;;;;;;;2.33;2.33;;;;;26.27;43.70;101155.09;5061730;28;46274;-76
2021/07/07 06:24:18;;;;;;;;;1.00;1.00;;;;;26.17;43.71;101147.50;5061755;28;45345;-76
2021/07/07 06:26:43;;;;;;;;;2.00;2.00;;;;;26.31;43.54;101166.16;5061506;28;45258;-80
2021/07/07 06:29:10;;;;;;;;;2.25;2.25;;;;;26.29;43.78;101168.22;5062945;28;45601;-80
2021/07/07 06:31:35;;;;;;;;;1.25;1.25;;;;;26.20;43.67;101148.09;5064052;27;45419;-73
2021/07/07 06:34:02;;;;;;;;;1.25;1.25;;;;;26.29;43.43;101166.38;5067280;28;45476;-75
2021/07/07 06:36:27;;;;;;;;;2.00;2.00;;;;;26.33;43.88;101161.47;5077747;28;45365;-76
2021/07/07 06:38:52;;;;;;;;;1.25;1.00;;;;;26.48;43.65;101168.50;5074358;28;45572;-75
2021/07/07 06:41:18;;;;;;;;;3.00;2.00;;;;;26.46;43.66;101152.72;5063404;28;45532;-76
2021/07/07 06:43:43;;;;;;;;;1.25;1.25;;;;;26.69;44.03;101174.69;5071698;28;45460;-76
2021/07/07 06:46:08;;;;;;;;;2.33;1.67;;;;;26.60;43.53;101147.38;5090715;27;45192;-79
2021/07/07 06:48:34;;;;;;;;;3.67;2.33;;;;;26.93;43.66;101180.44;5077605;27;45301;-73
2021/07/07 06:50:59;;;;;;;;;1.50;1.50;;;;;26.98;43.63;101180.66;5061235;28;45409;-71
2021/07/07 06:53:25;;;;;;;;;1.00;1.00;;;;;26.98;43.14;101177.97;5062899;28;45340;-71
2021/07/07 06:55:52;;;;;;;;;1.00;1.00;;;;;27.16;42.96;101200.59;5061138;28;45485;-71
2021/07/07 06:58:17;;;;;;;;;3.00;3.00;;;;;27.17;43.09;101186.19;5061077;27;45512;-71
2021/07/07 07:00:43;;;;;;;;;2.00;2.00;;;;;27.22;43.29;101188.25;5067302;28;46659;-71
2021/07/07 07:03:08;;;;;;;;;3.00;2.00;;;;;27.28;42.68;101182.91;5071576;28;45318;-71
2021/07/07 07:05:34;;;;;;;;;3.00;2.75;;;;;27.40;42.97;101206.31;5065981;28;45256;-71
2021/07/07 07:08:01;;;;;;;;;3.00;3.00;;;;;27.36;43.26;101191.72;5058971;28;45526;-73
2021/07/07 07:10:26;;;;;;;;;1.25;1.25;;;;;27.42;42.53;101201.59;5057609;28;47214;-72
2021/07/07 07:12:52;;;;;;;;;1.00;1.00;;;;;27.40;42.55;101193.75;5060109;28;45294;-72
2021/07/07 07:15:17;;;;;;;;;1.33;1.33;;;;;27.58;42.99;101216.34;5059939;28;45963;-72
2021/07/07 07:17:43;;;;;;;;;3.00;2.00;;;;;27.66;42.36;101219.81;5060954;28;45217;-72
2021/07/07 07:20:11;;;;;;;;;2.25;1.00;;;;;27.63;42.93;101215.72;5060782;28;45383;-72
2021/07/07 07:22:38;;;;;;;;;2.00;1.67;;;;;27.62;42.91;101214.91;5060993;28;45421;-72
2021/07/07 07:25:06;;;;;;;;;1.50;1.50;;;;;27.67;42.82;101216.09;5060425;28;45342;-72
2021/07/07 07:27:32;;;;;;;;;2.00;1.00;;;;;27.56;42.97;101199.69;5060800;28;45237;-72
2021/07/07 07:29:57;;;;;;;;;5.25;3.00;;;;;27.59;42.98;101211.81;5063888;28;45459;-72
2021/07/07 07:32:23;;;;;;;;;2.50;2.00;;;;;27.73;42.42;101234.00;5070950;28;45196;-72
2021/07/07 07:34:48;;;;;;;;;2.00;2.00;;;;;27.63;43.11;101221.06;5060784;28;45466;-72
2021/07/07 07:37:20;;;;;;;;;2.25;2.25;;;;;27.72;42.37;101235.00;5069462;28;45409;-72
2021/07/07 07:39:54;;;;;;;;;1.25;1.25;;;;;27.58;42.17;101220.88;5063395;28;46340;-72
2021/07/07 07:42:20;;;;;;;;;2.00;2.00;;;;;27.43;43.17;101200.53;5076742;27;45331;-72
2021/07/07 07:44:46;;;;;;;;;4.25;2.00;;;;;27.61;43.10;101239.16;5080566;28;45380;-72
2021/07/07 07:47:14;;;;;;;;;2.00;2.00;;;;;27.50;43.07;101232.59;5081002;28;45341;-72
2021/07/07 07:49:40;;;;;;;;;2.25;2.25;;;;;27.41;42.59;101232.00;5074647;28;45631;-72
2021/07/07 07:52:06;;;;;;;;;1.00;1.00;;;;;27.50;42.63;101246.81;5060266;28;45251;-72
2021/07/07 07:54:33;;;;;;;;;3.25;2.50;;;;;27.51;43.02;101245.75;5060224;28;45324;-72
2021/07/07 07:56:59;;;;;;;;;1.50;1.00;;;;;27.51;42.57;101247.59;5060331;28;45446;-72
2021/07/07 07:59:25;;;;;;;;;2.00;1.25;;;;;27.58;42.87;101256.44;5059917;28;45462;-72
2021/07/07 08:01:50;;;;;;;;;2.75;2.00;;;;;27.49;42.92;101237.13;5060170;28;45367;-73
2021/07/07 08:04:17;;;;;;;;;4.00;2.75;;;;;27.62;42.68;101236.28;5060209;28;45335;-71
2021/07/07 08:06:43;;;;;;;;;2.00;2.00;;;;;27.67;42.41;101248.19;5060091;28;45216;-73
2021/07/07 08:09:08;;;;;;;;;1.25;1.25;;;;;27.62;43.00;101236.28;5059696;28;46212;-73
2021/07/07 08:11:37;;;;;;;;;1.50;1.00;;;;;27.76;42.68;101254.13;5059797;28;45260;-73
2021/07/07 08:14:02;;;;;;;;;3.50;2.00;;;;;27.71;42.65;101244.06;5075423;27;45445;-73
2021/07/07 08:16:28;;;;;;;;;2.50;2.50;;;;;27.72;42.55;101248.38;5072708;28;45503;-72
2021/07/07 08:18:53;;;;;;;;;1.00;1.00;;;;;27.71;42.72;101244.88;5079937;28;46160;-73
2021/07/07 08:21:19;;;;;;;;;4.00;2.75;;;;;27.88;42.63;101270.38;5078807;28;45326;-72
2021/07/07 08:23:48;;;;;;;;;2.25;2.00;;;;;27.84;42.29;101278.81;5080026;28;45290;-72
2021/07/07 08:26:14;;;;;;;;;2.00;2.00;;;;;27.87;42.25;101279.44;5095386;27;45460;-72
2021/07/07 08:28:40;;;;;;;;;3.00;1.50;;;;;27.87;42.72;101279.44;5078496;28;47045;-72
2021/07/07 08:31:06;;;;;;;;;2.75;2.00;;;;;27.77;42.91;101266.44;5066805;28;45165;-72
2021/07/07 08:33:31;;;;;;;;;1.25;1.25;;;;;27.66;42.61;101258.06;5064556;28;45303;-72
2021/07/07 08:35:56;;;;;;;;;4.75;2.00;;;;;27.76;42.42;101270.19;5077531;28;45931;-72
2021/07/07 08:38:22;;;;;;;;;3.25;2.00;;;;;27.76;42.21;101287.03;5072465;27;46153;-73
2021/07/07 08:40:48;;;;;;;;;2.25;2.25;;;;;27.61;42.20;101263.22;5059325;27;45612;-72
2021/07/07 08:43:13;;;;;;;;;5.00;2.75;;;;;27.72;42.23;101283.13;5065569;28;45372;-71
2021/07/07 08:45:39;;;;;;;;;2.67;2.67;;;;;27.62;42.79;101276.38;5066808;28;45331;-72
2021/07/07 08:48:04;;;;;;;;;2.25;2.25;;;;;27.73;42.51;101296.31;5059401;28;46216;-73
2021/07/07 08:50:34;;;;;;;;;3.25;2.00;;;;;27.63;43.04;101282.53;5059733;28;45307;-72
2021/07/07 08:53:01;;;;;;;;;2.00;2.00;;;;;27.74;42.35;101289.06;5058291;28;45239;-72
2021/07/07 08:55:28;;;;;;;;;4.75;3.00;;;;;27.81;42.24;101305.97;5059087;28;45465;-72
2021/07/07 08:57:54;;;;;;;;;3.33;3.00;;;;;27.71;42.57;101290.31;5075213;28;47100;-72
2021/07/07 09:00:27;;;;;;;;;2.00;2.00;;;;;27.77;42.21;101288.66;5059329;28;45388;-72
2021/07/07 09:02:58;;;;;;;;;1.75;1.75;;;;;27.89;42.09;101302.25;5065319;28;45501;-72
2021/07/07 09:05:26;;;;;;;;;1.00;1.00;;;;;27.81;42.10;101289.13;5079389;28;45562;-72
2021/07/07 09:07:53;;;;;;;;;1.00;1.00;;;;;27.80;41.94;101287.47;5095159;27;47278;-72
2021/07/07 09:10:30;;;;;;;;;2.00;2.00;;;;;27.93;42.68;101310.66;5079404;28;45406;-72
2021/07/07 09:12:56;;;;;;;;;1.50;1.00;;;;;27.94;42.06;101309.66;5079971;28;45409;-72
2021/07/07 09:15:23;;;;;;;;;3.00;2.00;;;;;27.89;42.38;101299.59;5077987;28;45514;-72
2021/07/07 09:17:51;;;;;;;;;1.00;1.00;;;;;27.99;41.93;101322.38;5095219;27;47148;-72
2021/07/07 09:20:24;;;;;;;;;2.00;2.00;;;;;28.02;42.33;101325.47;5078089;28;45288;-72
2021/07/07 09:22:51;;;;;;;;;2.33;1.67;;;;;27.92;42.58;101303.69;5076049;28;45245;-72
2021/07/07 09:25:26;;;;;;;;;3.00;3.00;;;;;28.02;42.44;101321.97;5077956;28;45279;-72
2021/07/07 09:27:51;;;;;;;;;2.00;2.00;;;;;28.07;42.30;101325.66;5059522;28;45356;-72
2021/07/07 09:30:17;;;;;;;;;2.00;2.00;;;;;28.03;42.34;101321.75;5067346;28;45390;-72
2021/07/07 09:32:50;;;;;;;;;3.25;2.50;;;;;28.09;42.43;101325.44;5080839;28;45333;-72
2021/07/07 09:35:20;;;;;;;;;2.00;2.00;;;;;28.06;42.17;101328.53;5081338;28;45546;-72
2021/07/07 09:37:54;;;;;;;;;2.00;2.00;;;;;28.05;41.90;101322.34;5082568;27;46286;-72
2021/07/07 09:40:20;;;;;;;;;3.00;2.00;;;;;28.16;42.16;101330.75;5062268;28;45469;-73
2021/07/07 09:42:48;;;;;;;;;3.25;2.25;;;;;28.16;42.30;101336.94;5064134;28;45517;-73
2021/07/07 09:45:17;;;;;;;;;1.75;1.25;;;;;28.18;42.11;101334.06;5082770;28;45320;-72
2021/07/07 09:47:43;;;;;;;;;0.50;0.50;;;;;28.14;41.93;101324.81;5082047;28;45475;-72
2021/07/07 09:50:10;;;;;;;;;3.00;3.00;;;;;28.17;41.60;101337.78;5082672;28;45361;-72
2021/07/07 09:52:36;;;;;;;;;2.00;2.00;;;;;28.17;41.54;101338.59;5082500;28;45416;-72
2021/07/07 09:55:08;;;;;;;;;2.00;2.00;;;;;28.05;42.04;101321.56;5081911;28;45306;-72
2021/07/07 09:57:34;;;;;;;;;1.25;1.25;;;;;28.11;41.76;101342.09;5082502;28;45408;-71
2021/07/07 09:59:59;;;;;;;;;2.00;2.00;;;;;27.97;41.64;101330.63;5080418;28;45393;-72
2021/07/07 10:02:26;;;;;;;;;2.00;2.00;;;;;28.09;41.96;101348.69;5080418;28;45437;-77
2021/07/07 10:04:52;;;;;;;;;1.00;1.00;;;;;27.91;38.99;101334.97;5071728;28;45392;-75
2021/07/07 10:07:19;;;;;;;;;1.00;1.00;;;;;27.86;39.71;101334.75;5070113;28;47269;-74
2021/07/07 10:09:45;;;;;;;;;1.00;1.00;;;;;27.96;39.27;101355.72;5064028;27;45241;-77
2021/07/07 10:12:12;;;;;;;;;2.00;2.00;;;;;27.73;38.27;101317.69;5068984;28;45316;-77
2021/07/07 10:14:37;;;;;;;;;1.50;1.50;;;;;27.79;38.68;101333.94;5064192;27;45267;-77
2021/07/07 10:17:04;;;;;;;;;1.75;1.75;;;;;27.87;37.97;101351.63;5063602;27;46603;-77
2021/07/07 10:19:30;;;;;;;;;1.25;1.25;;;;;27.71;37.88;101327.75;5069953;28;45375;-77
2021/07/07 10:21:56;;;;;;;;;2.00;2.00;;;;;27.74;37.53;101348.72;5066409;27;45434;-77
2021/07/07 10:24:29;;;;;;;;;1.00;1.00;;;;;27.73;38.41;101344.41;5060802;27;45458;-77
2021/07/07 10:27:03;;;;;;;;;2.25;2.00;;;;;27.75;38.11;101346.88;5062989;27;45944;-76
2021/07/07 10:29:30;;;;;;;;;2.50;2.50;;;;;27.76;38.01;101345.84;5065854;27;45479;-77
2021/07/07 10:32:01;;;;;;;;;2.00;2.00;;;;;27.67;36.41;101337.22;5072033;27;45397;-77
2021/07/07 10:34:29;;;;;;;;;3.25;2.00;;;;;27.62;38.15;101332.50;5062474;27;46029;-77
2021/07/07 10:36:57;;;;;;;;;3.00;2.00;;;;;27.73;37.46;101349.75;5071007;28;46108;-77
2021/07/07 10:39:23;;;;;;;;;2.00;2.00;;;;;27.77;37.44;101349.31;5069026;27;45533;-77
2021/07/07 10:42:03;;;;;;;;;5.00;3.00;;;;;27.71;37.69;101343.78;5061111;28;45368;-77
2021/07/07 10:44:34;;;;;;;;;1.00;1.00;;;;;27.79;37.45;101340.06;5066615;27;45505;-80
2021/07/07 10:47:05;;;;;;;;;2.00;2.00;;;;;27.74;37.55;101337.19;5073406;27;47103;-74
2021/07/07 10:49:30;;;;;;;;;2.00;2.00;;;;;27.81;37.68;101340.75;5069828;27;45397;-76
2021/07/07 10:51:58;;;;;;;;;3.67;3.00;;;;;27.77;37.00;101341.31;5061838;28;46022;-81
2021/07/07 10:54:27;;;;;;;;;1.75;1.75;;;;;27.77;36.86;101339.47;5059613;28;45511;-81
2021/07/07 10:56:54;;;;;;;;;2.25;2.25;;;;;27.79;36.63;101342.75;5059781;28;45425;-81
2021/07/07 10:59:36;;;;;;;;;2.00;2.00;;;;;27.79;36.84;101334.72;5059179;28;45354;-81
2021/07/07 11:02:09;;;;;;;;;2.25;2.25;;;;;27.74;36.66;101335.34;5061158;28;45444;-81
2021/07/07 11:04:43;;;;;;;;;2.50;2.00;;;;;27.78;36.61;101346.47;5061253;28;45253;-81
2021/07/07 11:07:35;;;;;;;;;2.00;2.00;;;;;27.77;36.69;101346.66;5060828;28;45300;-81
2021/07/07 11:10:24;;;;;;;;;2.00;2.00;;;;;27.75;36.58;101354.88;5062653;28;45404;-81
2021/07/07 11:12:49;;;;;;;;;2.00;2.00;;;;;27.75;36.55;101349.53;5073203;28;45197;-81
2021/07/07 11:15:23;;;;;;;;;2.00;2.00;;;;;27.60;36.27;101331.06;5081002;28;45764;-81
2021/07/07 11:17:52;;;;;;;;;2.00;2.00;;;;;27.65;35.76;101341.94;5079864;28;48066;-81
2021/07/07 11:20:30;;;;;;;;;3.00;3.00;;;;;27.52;36.13;101319.56;5063017;28;45681;-81
2021/07/07 11:23:01;;;;;;;;;2.00;2.00;;;;;27.74;35.84;101355.91;5081374;28;45269;-81
2021/07/07 11:25:29;;;;;;;;;2.00;2.00;;;;;27.68;35.94;101351.41;5081372;28;45217;-81